sensor_id;sensor_type;location;lat;lon;timestamp;P1;durP1;ratioP1;P2;durP2;ratioP2
80193;SDS011;69515;42.072;21.504;2024-03-23T00:53:30;6.93;;;3.35;;
80193;SDS011;69515;42.072;21.504;2024-03-23T00:55:57;7.68;;;3.28;;
80193;SDS011;69515;42.072;21.504;2024-03-23T00:58:23;6.70;;;2.90;;
80193;SDS011;69515;42.072;21.504;2024-03-23T01:00:49;6.75;;;3.20;;
80193;SDS011;69515;42.072;21.504;2024-03-23T01:03:15;6.88;;;3.35;;
80193;SDS011;69515;42.072;21.504;2024-03-23T01:05:41;8.25;;;3.15;;
80193;SDS011;69515;42.072;21.504;2024-03-23T01:08:07;5.60;;;3.10;;
80193;SDS011;69515;42.072;21.504;2024-03-23T01:10:34;5.57;;;2.95;;
80193;SDS011;69515;42.072;21.504;2024-03-23T01:15:26;6.57;;;3.38;;
80193;SDS011;69515;42.072;21.504;2024-03-23T01:17:52;7.85;;;3.20;;
80193;SDS011;69515;42.072;21.504;2024-03-23T01:20:19;5.22;;;2.95;;
80193;SDS011;69515;42.072;21.504;2024-03-23T01:22:45;7.18;;;3.03;;
80193;SDS011;69515;42.072;21.504;2024-03-23T01:25:11;6.07;;;3.38;;
80193;SDS011;69515;42.072;21.504;2024-03-23T01:27:37;6.18;;;3.35;;
80193;SDS011;69515;42.072;21.504;2024-03-23T01:30:04;7.97;;;3.80;;
80193;SDS011;69515;42.072;21.504;2024-03-23T01:32:30;6.93;;;3.50;;
80193;SDS011;69515;42.072;21.504;2024-03-23T01:34:56;7.18;;;3.53;;
80193;SDS011;69515;42.072;21.504;2024-03-23T01:39:48;6.60;;;3.28;;
80193;SDS011;69515;42.072;21.504;2024-03-23T01:42:15;6.43;;;3.15;;
80193;SDS011;69515;42.072;21.504;2024-03-23T01:44:41;5.97;;;3.13;;
80193;SDS011;69515;42.072;21.504;2024-03-23T01:47:07;7.60;;;3.15;;
80193;SDS011;69515;42.072;21.504;2024-03-23T01:49:33;7.00;;;3.13;;
80193;SDS011;69515;42.072;21.504;2024-03-23T01:52:00;7.03;;;3.50;;
80193;SDS011;69515;42.072;21.504;2024-03-23T01:56:52;8.68;;;3.22;;
80193;SDS011;69515;42.072;21.504;2024-03-23T01:59:18;5.95;;;3.30;;
80193;SDS011;69515;42.072;21.504;2024-03-23T02:01:45;6.45;;;3.05;;
80193;SDS011;69515;42.072;21.504;2024-03-23T02:04:11;5.65;;;2.90;;
80193;SDS011;69515;42.072;21.504;2024-03-23T02:06:37;6.13;;;2.97;;
80193;SDS011;69515;42.072;21.504;2024-03-23T02:09:03;6.28;;;3.30;;
80193;SDS011;69515;42.072;21.504;2024-03-23T02:11:30;7.60;;;3.10;;
80193;SDS011;69515;42.072;21.504;2024-03-23T02:13:56;6.32;;;3.30;;
80193;SDS011;69515;42.072;21.504;2024-03-23T02:16:23;6.78;;;3.53;;
80193;SDS011;69515;42.072;21.504;2024-03-23T02:21:15;5.47;;;2.97;;
80193;SDS011;69515;42.072;21.504;2024-03-23T02:26:07;6.15;;;3.25;;
80193;SDS011;69515;42.072;21.504;2024-03-23T02:28:33;6.70;;;3.47;;
80193;SDS011;69515;42.072;21.504;2024-03-23T02:31:00;7.47;;;3.72;;
80193;SDS011;69515;42.072;21.504;2024-03-23T02:33:26;7.40;;;3.65;;
80193;SDS011;69515;42.072;21.504;2024-03-23T02:35:55;7.50;;;3.50;;
80193;SDS011;69515;42.072;21.504;2024-03-23T02:38:22;6.50;;;3.25;;
80193;SDS011;69515;42.072;21.504;2024-03-23T02:40:49;7.13;;;3.50;;
80193;SDS011;69515;42.072;21.504;2024-03-23T02:43:15;6.93;;;3.60;;
80193;SDS011;69515;42.072;21.504;2024-03-23T02:45:41;6.70;;;3.33;;
80193;SDS011;69515;42.072;21.504;2024-03-23T02:48:07;6.75;;;3.50;;
80193;SDS011;69515;42.072;21.504;2024-03-23T02:50:33;6.85;;;3.50;;
80193;SDS011;69515;42.072;21.504;2024-03-23T02:52:59;8.93;;;3.97;;
80193;SDS011;69515;42.072;21.504;2024-03-23T02:55:26;8.20;;;3.58;;
80193;SDS011;69515;42.072;21.504;2024-03-23T03:00:18;8.20;;;3.70;;
80193;SDS011;69515;42.072;21.504;2024-03-23T03:05:10;7.03;;;3.25;;
80193;SDS011;69515;42.072;21.504;2024-03-23T03:07:39;6.07;;;3.45;;
80193;SDS011;69515;42.072;21.504;2024-03-23T03:10:06;6.60;;;3.45;;
80193;SDS011;69515;42.072;21.504;2024-03-23T03:12:35;8.43;;;3.67;;
80193;SDS011;69515;42.072;21.504;2024-03-23T03:15:01;8.07;;;2.90;;
80193;SDS011;69515;42.072;21.504;2024-03-23T03:17:28;6.28;;;3.30;;
80193;SDS011;69515;42.072;21.504;2024-03-23T03:19:54;6.78;;;3.25;;
80193;SDS011;69515;42.072;21.504;2024-03-23T03:22:21;6.85;;;3.60;;
80193;SDS011;69515;42.072;21.504;2024-03-23T03:24:47;6.32;;;3.38;;
80193;SDS011;69515;42.072;21.504;2024-03-23T03:27:13;7.30;;;3.25;;
80193;SDS011;69515;42.072;21.504;2024-03-23T03:29:40;7.38;;;3.50;;
80193;SDS011;69515;42.072;21.504;2024-03-23T03:34:32;10.05;;;4.03;;
80193;SDS011;69515;42.072;21.504;2024-03-23T03:36:58;9.27;;;4.13;;
80193;SDS011;69515;42.072;21.504;2024-03-23T03:39:24;9.70;;;4.68;;
80193;SDS011;69515;42.072;21.504;2024-03-23T03:41:51;7.85;;;4.05;;
80193;SDS011;69515;42.072;21.504;2024-03-23T03:44:17;7.15;;;3.72;;
80193;SDS011;69515;42.072;21.504;2024-03-23T03:46:43;7.20;;;3.95;;
80193;SDS011;69515;42.072;21.504;2024-03-23T03:49:09;8.80;;;3.55;;
80193;SDS011;69515;42.072;21.504;2024-03-23T03:51:36;6.07;;;3.22;;
80193;SDS011;69515;42.072;21.504;2024-03-23T03:54:02;7.05;;;3.47;;
80193;SDS011;69515;42.072;21.504;2024-03-23T03:56:28;7.75;;;3.25;;
80193;SDS011;69515;42.072;21.504;2024-03-23T03:58:54;7.10;;;3.53;;
80193;SDS011;69515;42.072;21.504;2024-03-23T04:01:20;6.70;;;3.40;;
80193;SDS011;69515;42.072;21.504;2024-03-23T04:03:46;7.00;;;3.78;;
80193;SDS011;69515;42.072;21.504;2024-03-23T04:06:18;9.20;;;3.60;;
80193;SDS011;69515;42.072;21.504;2024-03-23T04:08:44;6.53;;;3.30;;
80193;SDS011;69515;42.072;21.504;2024-03-23T04:13:37;8.25;;;3.78;;
80193;SDS011;69515;42.072;21.504;2024-03-23T04:16:03;6.72;;;3.80;;
80193;SDS011;69515;42.072;21.504;2024-03-23T04:18:29;7.00;;;3.58;;
80193;SDS011;69515;42.072;21.504;2024-03-23T04:20:55;8.02;;;3.60;;
80193;SDS011;69515;42.072;21.504;2024-03-23T04:23:21;7.28;;;3.95;;
80193;SDS011;69515;42.072;21.504;2024-03-23T04:25:48;8.65;;;3.58;;
80193;SDS011;69515;42.072;21.504;2024-03-23T04:30:41;7.35;;;3.60;;
80193;SDS011;69515;42.072;21.504;2024-03-23T04:33:07;10.80;;;3.85;;
80193;SDS011;69515;42.072;21.504;2024-03-23T04:35:33;7.40;;;4.00;;
80193;SDS011;69515;42.072;21.504;2024-03-23T04:37:59;7.97;;;3.83;;
80193;SDS011;69515;42.072;21.504;2024-03-23T04:40:26;7.03;;;3.65;;
80193;SDS011;69515;42.072;21.504;2024-03-23T04:45:18;7.45;;;3.95;;
80193;SDS011;69515;42.072;21.504;2024-03-23T04:47:44;9.18;;;3.55;;
80193;SDS011;69515;42.072;21.504;2024-03-23T04:50:11;7.95;;;3.75;;
80193;SDS011;69515;42.072;21.504;2024-03-23T04:52:37;7.18;;;3.60;;
80193;SDS011;69515;42.072;21.504;2024-03-23T04:55:03;6.60;;;3.75;;
80193;SDS011;69515;42.072;21.504;2024-03-23T04:57:29;8.00;;;3.85;;
80193;SDS011;69515;42.072;21.504;2024-03-23T04:59:56;6.18;;;3.25;;
80193;SDS011;69515;42.072;21.504;2024-03-23T05:02:23;6.50;;;3.72;;
80193;SDS011;69515;42.072;21.504;2024-03-23T05:04:50;6.28;;;3.30;;
80193;SDS011;69515;42.072;21.504;2024-03-23T05:07:16;6.88;;;3.55;;
80193;SDS011;69515;42.072;21.504;2024-03-23T05:09:43;7.45;;;3.78;;
80193;SDS011;69515;42.072;21.504;2024-03-23T05:12:09;6.80;;;3.40;;
80193;SDS011;69515;42.072;21.504;2024-03-23T05:14:35;7.13;;;3.90;;
80193;SDS011;69515;42.072;21.504;2024-03-23T05:17:01;7.70;;;3.85;;
80193;SDS011;69515;42.072;21.504;2024-03-23T05:19:28;6.43;;;3.65;;
80193;SDS011;69515;42.072;21.504;2024-03-23T05:21:54;9.40;;;3.88;;
80193;SDS011;69515;42.072;21.504;2024-03-23T05:24:20;19.05;;;7.78;;
80193;SDS011;69515;42.072;21.504;2024-03-23T05:26:46;8.82;;;4.70;;
80193;SDS011;69515;42.072;21.504;2024-03-23T05:29:12;6.28;;;3.50;;
80193;SDS011;69515;42.072;21.504;2024-03-23T05:31:39;7.63;;;4.00;;
80193;SDS011;69515;42.072;21.504;2024-03-23T05:34:06;6.10;;;3.47;;
80193;SDS011;69515;42.072;21.504;2024-03-23T05:36:33;10.05;;;4.13;;
80193;SDS011;69515;42.072;21.504;2024-03-23T05:41:25;9.23;;;3.83;;
80193;SDS011;69515;42.072;21.504;2024-03-23T05:43:51;6.88;;;4.07;;
80193;SDS011;69515;42.072;21.504;2024-03-23T05:46:17;9.80;;;4.20;;
80193;SDS011;69515;42.072;21.504;2024-03-23T05:48:43;7.45;;;4.43;;
80193;SDS011;69515;42.072;21.504;2024-03-23T05:53:37;7.95;;;3.60;;
80193;SDS011;69515;42.072;21.504;2024-03-23T05:56:05;9.60;;;4.45;;
80193;SDS011;69515;42.072;21.504;2024-03-23T05:58:32;8.00;;;4.63;;
80193;SDS011;69515;42.072;21.504;2024-03-23T06:00:58;7.57;;;4.32;;
80193;SDS011;69515;42.072;21.504;2024-03-23T06:03:28;9.82;;;4.45;;
80193;SDS011;69515;42.072;21.504;2024-03-23T06:05:55;9.65;;;5.35;;
80193;SDS011;69515;42.072;21.504;2024-03-23T06:08:22;12.50;;;5.45;;
80193;SDS011;69515;42.072;21.504;2024-03-23T06:10:49;11.32;;;5.55;;
80193;SDS011;69515;42.072;21.504;2024-03-23T06:13:15;14.00;;;5.80;;
80193;SDS011;69515;42.072;21.504;2024-03-23T06:15:42;11.35;;;5.70;;
80193;SDS011;69515;42.072;21.504;2024-03-23T06:18:10;14.77;;;6.35;;
80193;SDS011;69515;42.072;21.504;2024-03-23T06:20:37;9.95;;;6.20;;
80193;SDS011;69515;42.072;21.504;2024-03-23T06:23:04;11.07;;;6.80;;
80193;SDS011;69515;42.072;21.504;2024-03-23T06:25:30;11.55;;;6.10;;
80193;SDS011;69515;42.072;21.504;2024-03-23T06:27:56;10.63;;;6.25;;
80193;SDS011;69515;42.072;21.504;2024-03-23T06:30:23;10.10;;;5.80;;
80193;SDS011;69515;42.072;21.504;2024-03-23T06:32:49;11.07;;;6.22;;
80193;SDS011;69515;42.072;21.504;2024-03-23T06:35:15;9.98;;;6.10;;
80193;SDS011;69515;42.072;21.504;2024-03-23T06:37:42;10.35;;;6.57;;
80193;SDS011;69515;42.072;21.504;2024-03-23T06:40:08;11.48;;;6.40;;
80193;SDS011;69515;42.072;21.504;2024-03-23T06:42:35;14.68;;;6.57;;
80193;SDS011;69515;42.072;21.504;2024-03-23T06:45:02;13.60;;;6.43;;
80193;SDS011;69515;42.072;21.504;2024-03-23T06:47:31;10.10;;;6.03;;
80193;SDS011;69515;42.072;21.504;2024-03-23T06:49:58;9.35;;;5.70;;
80193;SDS011;69515;42.072;21.504;2024-03-23T06:52:26;9.95;;;6.30;;
80193;SDS011;69515;42.072;21.504;2024-03-23T06:54:53;8.10;;;5.28;;
80193;SDS011;69515;42.072;21.504;2024-03-23T06:57:19;9.32;;;5.65;;
80193;SDS011;69515;42.072;21.504;2024-03-23T06:59:45;9.48;;;6.00;;
80193;SDS011;69515;42.072;21.504;2024-03-23T07:02:11;8.55;;;5.30;;
80193;SDS011;69515;42.072;21.504;2024-03-23T07:04:37;8.50;;;4.90;;
80193;SDS011;69515;42.072;21.504;2024-03-23T07:07:06;8.13;;;5.47;;
80193;SDS011;69515;42.072;21.504;2024-03-23T07:09:33;9.52;;;4.72;;
80193;SDS011;69515;42.072;21.504;2024-03-23T07:11:59;8.38;;;5.07;;
80193;SDS011;69515;42.072;21.504;2024-03-23T07:14:25;9.00;;;5.07;;
80193;SDS011;69515;42.072;21.504;2024-03-23T07:16:52;10.68;;;5.63;;
80193;SDS011;69515;42.072;21.504;2024-03-23T07:19:18;8.00;;;4.72;;
80193;SDS011;69515;42.072;21.504;2024-03-23T07:21:44;8.35;;;4.75;;
80193;SDS011;69515;42.072;21.504;2024-03-23T07:24:11;7.53;;;4.70;;
80193;SDS011;69515;42.072;21.504;2024-03-23T07:26:37;8.93;;;5.55;;
80193;SDS011;69515;42.072;21.504;2024-03-23T07:29:04;12.15;;;6.57;;
80193;SDS011;69515;42.072;21.504;2024-03-23T07:31:30;11.57;;;5.50;;
80193;SDS011;69515;42.072;21.504;2024-03-23T07:33:56;9.95;;;4.88;;
80193;SDS011;69515;42.072;21.504;2024-03-23T07:36:22;6.88;;;4.78;;
80193;SDS011;69515;42.072;21.504;2024-03-23T07:38:49;9.00;;;4.47;;
80193;SDS011;69515;42.072;21.504;2024-03-23T07:41:16;11.82;;;5.38;;
80193;SDS011;69515;42.072;21.504;2024-03-23T07:43:43;8.43;;;5.22;;
80193;SDS011;69515;42.072;21.504;2024-03-23T07:46:09;12.68;;;5.32;;
80193;SDS011;69515;42.072;21.504;2024-03-23T07:48:37;8.23;;;5.40;;
80193;SDS011;69515;42.072;21.504;2024-03-23T07:53:30;10.10;;;5.70;;
80193;SDS011;69515;42.072;21.504;2024-03-23T07:55:57;11.23;;;6.38;;
80193;SDS011;69515;42.072;21.504;2024-03-23T07:58:23;10.93;;;6.45;;
80193;SDS011;69515;42.072;21.504;2024-03-23T08:00:49;11.35;;;6.10;;
80193;SDS011;69515;42.072;21.504;2024-03-23T08:03:16;10.65;;;6.57;;
80193;SDS011;69515;42.072;21.504;2024-03-23T08:05:42;8.90;;;5.70;;
80193;SDS011;69515;42.072;21.504;2024-03-23T08:08:08;9.48;;;5.93;;
80193;SDS011;69515;42.072;21.504;2024-03-23T08:10:34;8.85;;;5.05;;
80193;SDS011;69515;42.072;21.504;2024-03-23T08:13:00;9.25;;;4.55;;
80193;SDS011;69515;42.072;21.504;2024-03-23T08:15:27;8.00;;;4.88;;
80193;SDS011;69515;42.072;21.504;2024-03-23T08:17:58;7.93;;;4.57;;
80193;SDS011;69515;42.072;21.504;2024-03-23T08:20:24;11.57;;;4.85;;
80193;SDS011;69515;42.072;21.504;2024-03-23T08:22:50;10.80;;;5.05;;
80193;SDS011;69515;42.072;21.504;2024-03-23T08:25:16;13.10;;;6.20;;
80193;SDS011;69515;42.072;21.504;2024-03-23T08:27:44;9.00;;;4.70;;
80193;SDS011;69515;42.072;21.504;2024-03-23T08:30:10;8.77;;;4.78;;
80193;SDS011;69515;42.072;21.504;2024-03-23T08:32:38;8.18;;;4.65;;
80193;SDS011;69515;42.072;21.504;2024-03-23T08:35:06;8.32;;;4.95;;
80193;SDS011;69515;42.072;21.504;2024-03-23T08:37:32;17.20;;;4.82;;
80193;SDS011;69515;42.072;21.504;2024-03-23T08:39:58;9.48;;;4.90;;
80193;SDS011;69515;42.072;21.504;2024-03-23T08:42:25;9.18;;;5.05;;
80193;SDS011;69515;42.072;21.504;2024-03-23T08:44:51;8.88;;;5.53;;
80193;SDS011;69515;42.072;21.504;2024-03-23T08:47:17;15.38;;;5.10;;
80193;SDS011;69515;42.072;21.504;2024-03-23T08:49:44;8.90;;;5.07;;
80193;SDS011;69515;42.072;21.504;2024-03-23T08:52:10;9.27;;;4.78;;
80193;SDS011;69515;42.072;21.504;2024-03-23T08:54:36;8.07;;;4.45;;
80193;SDS011;69515;42.072;21.504;2024-03-23T08:57:02;7.90;;;4.65;;
80193;SDS011;69515;42.072;21.504;2024-03-23T08:59:29;11.38;;;5.38;;
80193;SDS011;69515;42.072;21.504;2024-03-23T09:01:55;9.23;;;4.68;;
80193;SDS011;69515;42.072;21.504;2024-03-23T09:04:21;9.75;;;5.00;;
80193;SDS011;69515;42.072;21.504;2024-03-23T09:06:48;8.32;;;5.30;;
80193;SDS011;69515;42.072;21.504;2024-03-23T09:09:15;8.07;;;4.90;;
80193;SDS011;69515;42.072;21.504;2024-03-23T09:11:41;8.02;;;4.93;;
80193;SDS011;69515;42.072;21.504;2024-03-23T09:14:08;9.10;;;5.47;;
80193;SDS011;69515;42.072;21.504;2024-03-23T09:16:34;11.63;;;6.53;;
80193;SDS011;69515;42.072;21.504;2024-03-23T09:19:00;8.77;;;5.63;;
80193;SDS011;69515;42.072;21.504;2024-03-23T09:21:26;9.55;;;5.30;;
80193;SDS011;69515;42.072;21.504;2024-03-23T09:23:53;12.30;;;5.53;;
80193;SDS011;69515;42.072;21.504;2024-03-23T09:26:19;8.75;;;4.70;;
80193;SDS011;69515;42.072;21.504;2024-03-23T09:28:48;7.78;;;5.32;;
80193;SDS011;69515;42.072;21.504;2024-03-23T09:31:14;10.05;;;5.53;;
80193;SDS011;69515;42.072;21.504;2024-03-23T09:33:40;12.55;;;5.90;;
80193;SDS011;69515;42.072;21.504;2024-03-23T09:36:07;9.63;;;6.30;;
80193;SDS011;69515;42.072;21.504;2024-03-23T09:38:34;8.18;;;5.07;;
80193;SDS011;69515;42.072;21.504;2024-03-23T09:41:00;9.43;;;5.00;;
80193;SDS011;69515;42.072;21.504;2024-03-23T09:43:26;7.20;;;4.72;;
80193;SDS011;69515;42.072;21.504;2024-03-23T09:45:53;11.82;;;5.50;;
80193;SDS011;69515;42.072;21.504;2024-03-23T09:48:19;7.65;;;5.05;;
80193;SDS011;69515;42.072;21.504;2024-03-23T09:50:45;9.27;;;5.35;;
80193;SDS011;69515;42.072;21.504;2024-03-23T09:53:14;9.40;;;4.95;;
80193;SDS011;69515;42.072;21.504;2024-03-23T09:55:41;7.97;;;5.45;;
80193;SDS011;69515;42.072;21.504;2024-03-23T09:58:08;8.57;;;4.88;;
80193;SDS011;69515;42.072;21.504;2024-03-23T10:00:34;7.32;;;4.72;;
80193;SDS011;69515;42.072;21.504;2024-03-23T10:03:01;8.32;;;5.32;;
80193;SDS011;69515;42.072;21.504;2024-03-23T10:05:28;8.60;;;4.90;;
80193;SDS011;69515;42.072;21.504;2024-03-23T10:07:54;9.25;;;5.22;;
80193;SDS011;69515;42.072;21.504;2024-03-23T10:10:21;7.45;;;4.50;;
80193;SDS011;69515;42.072;21.504;2024-03-23T10:12:47;8.18;;;5.10;;
80193;SDS011;69515;42.072;21.504;2024-03-23T10:15:19;7.50;;;4.88;;
80193;SDS011;69515;42.072;21.504;2024-03-23T10:17:46;8.60;;;5.05;;
80193;SDS011;69515;42.072;21.504;2024-03-23T10:20:12;7.80;;;4.22;;
80193;SDS011;69515;42.072;21.504;2024-03-23T10:22:39;9.43;;;4.97;;
80193;SDS011;69515;42.072;21.504;2024-03-23T10:25:08;9.30;;;4.80;;
80193;SDS011;69515;42.072;21.504;2024-03-23T10:27:35;6.68;;;4.05;;
80193;SDS011;69515;42.072;21.504;2024-03-23T10:30:10;7.53;;;4.70;;
80193;SDS011;69515;42.072;21.504;2024-03-23T10:32:37;8.82;;;4.90;;
80193;SDS011;69515;42.072;21.504;2024-03-23T10:35:17;9.70;;;4.78;;
80193;SDS011;69515;42.072;21.504;2024-03-23T10:37:47;7.57;;;5.00;;
80193;SDS011;69515;42.072;21.504;2024-03-23T10:40:26;10.38;;;5.30;;
80193;SDS011;69515;42.072;21.504;2024-03-23T10:42:53;7.18;;;4.53;;
80193;SDS011;69515;42.072;21.504;2024-03-23T10:45:22;7.32;;;4.15;;
80193;SDS011;69515;42.072;21.504;2024-03-23T10:47:48;7.50;;;4.43;;
80193;SDS011;69515;42.072;21.504;2024-03-23T10:50:14;7.60;;;4.47;;
80193;SDS011;69515;42.072;21.504;2024-03-23T10:52:41;10.40;;;4.45;;
80193;SDS011;69515;42.072;21.504;2024-03-23T10:55:10;15.15;;;4.90;;
80193;SDS011;69515;42.072;21.504;2024-03-23T10:57:40;8.45;;;4.85;;
80193;SDS011;69515;42.072;21.504;2024-03-23T11:00:08;8.05;;;3.95;;
80193;SDS011;69515;42.072;21.504;2024-03-23T11:02:35;10.20;;;4.63;;
80193;SDS011;69515;42.072;21.504;2024-03-23T11:05:02;6.80;;;3.85;;
80193;SDS011;69515;42.072;21.504;2024-03-23T11:07:31;8.18;;;4.45;;
80193;SDS011;69515;42.072;21.504;2024-03-23T11:09:58;9.10;;;4.35;;
80193;SDS011;69515;42.072;21.504;2024-03-23T11:17:22;7.93;;;4.18;;
80193;SDS011;69515;42.072;21.504;2024-03-23T11:19:55;8.43;;;4.10;;
80193;SDS011;69515;42.072;21.504;2024-03-23T11:25:15;7.95;;;3.72;;
80193;SDS011;69515;42.072;21.504;2024-03-23T11:27:43;5.75;;;3.40;;
80193;SDS011;69515;42.072;21.504;2024-03-23T11:30:14;7.38;;;4.05;;
80193;SDS011;69515;42.072;21.504;2024-03-23T11:32:44;7.18;;;3.33;;
80193;SDS011;69515;42.072;21.504;2024-03-23T11:35:24;7.68;;;4.07;;
80193;SDS011;69515;42.072;21.504;2024-03-23T11:38:03;7.15;;;3.60;;
80193;SDS011;69515;42.072;21.504;2024-03-23T11:40:29;5.97;;;3.65;;
80193;SDS011;69515;42.072;21.504;2024-03-23T11:42:58;6.40;;;3.38;;
80193;SDS011;69515;42.072;21.504;2024-03-23T11:45:24;8.90;;;3.55;;
80193;SDS011;69515;42.072;21.504;2024-03-23T11:48:06;8.70;;;3.10;;
80193;SDS011;69515;42.072;21.504;2024-03-23T11:50:33;7.03;;;3.28;;
80193;SDS011;69515;42.072;21.504;2024-03-23T11:55:50;6.10;;;3.53;;
80193;SDS011;69515;42.072;21.504;2024-03-23T11:58:18;6.20;;;3.53;;
80193;SDS011;69515;42.072;21.504;2024-03-23T12:01:03;7.07;;;2.90;;
80193;SDS011;69515;42.072;21.504;2024-03-23T12:05:58;5.47;;;2.78;;
80193;SDS011;69515;42.072;21.504;2024-03-23T12:13:34;4.30;;;2.20;;
80193;SDS011;69515;42.072;21.504;2024-03-23T12:16:10;11.13;;;2.70;;
80193;SDS011;69515;42.072;21.504;2024-03-23T12:18:37;4.68;;;1.90;;
80193;SDS011;69515;42.072;21.504;2024-03-23T12:21:04;4.63;;;2.17;;
80193;SDS011;69515;42.072;21.504;2024-03-23T12:23:31;4.95;;;2.42;;
80193;SDS011;69515;42.072;21.504;2024-03-23T12:25:57;4.32;;;1.88;;
80193;SDS011;69515;42.072;21.504;2024-03-23T12:28:24;4.30;;;2.13;;
80193;SDS011;69515;42.072;21.504;2024-03-23T12:30:51;6.95;;;2.15;;
80193;SDS011;69515;42.072;21.504;2024-03-23T12:33:18;5.45;;;1.98;;
80193;SDS011;69515;42.072;21.504;2024-03-23T12:35:44;4.28;;;1.85;;
80193;SDS011;69515;42.072;21.504;2024-03-23T12:38:10;5.03;;;2.20;;
80193;SDS011;69515;42.072;21.504;2024-03-23T12:40:36;5.15;;;2.28;;
80193;SDS011;69515;42.072;21.504;2024-03-23T12:43:03;3.95;;;2.03;;
80193;SDS011;69515;42.072;21.504;2024-03-23T12:45:29;6.38;;;2.10;;
80193;SDS011;69515;42.072;21.504;2024-03-23T12:47:55;5.97;;;2.20;;
80193;SDS011;69515;42.072;21.504;2024-03-23T12:50:21;4.82;;;2.00;;
80193;SDS011;69515;42.072;21.504;2024-03-23T12:52:48;4.43;;;1.80;;
80193;SDS011;69515;42.072;21.504;2024-03-23T12:55:14;5.38;;;1.80;;
80193;SDS011;69515;42.072;21.504;2024-03-23T12:57:40;3.92;;;1.95;;
80193;SDS011;69515;42.072;21.504;2024-03-23T13:00:07;3.92;;;1.90;;
80193;SDS011;69515;42.072;21.504;2024-03-23T13:02:36;4.00;;;2.30;;
80193;SDS011;69515;42.072;21.504;2024-03-23T13:05:04;4.35;;;1.67;;
80193;SDS011;69515;42.072;21.504;2024-03-23T13:07:30;4.03;;;1.80;;
80193;SDS011;69515;42.072;21.504;2024-03-23T13:09:56;4.25;;;1.63;;
80193;SDS011;69515;42.072;21.504;2024-03-23T13:12:23;5.60;;;2.05;;
80193;SDS011;69515;42.072;21.504;2024-03-23T13:14:49;4.40;;;2.30;;
80193;SDS011;69515;42.072;21.504;2024-03-23T13:17:15;3.78;;;1.90;;
80193;SDS011;69515;42.072;21.504;2024-03-23T13:19:42;4.28;;;2.17;;
80193;SDS011;69515;42.072;21.504;2024-03-23T13:22:08;3.58;;;1.80;;
80193;SDS011;69515;42.072;21.504;2024-03-23T13:27:28;3.80;;;1.90;;
80193;SDS011;69515;42.072;21.504;2024-03-23T13:29:54;4.47;;;2.35;;
80193;SDS011;69515;42.072;21.504;2024-03-23T13:32:20;3.67;;;1.77;;
80193;SDS011;69515;42.072;21.504;2024-03-23T13:34:46;5.30;;;1.92;;
80193;SDS011;69515;42.072;21.504;2024-03-23T13:37:15;4.55;;;1.98;;
80193;SDS011;69515;42.072;21.504;2024-03-23T13:39:41;4.43;;;2.00;;
80193;SDS011;69515;42.072;21.504;2024-03-23T13:42:08;4.50;;;2.15;;
80193;SDS011;69515;42.072;21.504;2024-03-23T13:44:34;4.00;;;2.05;;
80193;SDS011;69515;42.072;21.504;2024-03-23T13:47:01;5.78;;;1.70;;
80193;SDS011;69515;42.072;21.504;2024-03-23T13:49:29;5.30;;;2.00;;
80193;SDS011;69515;42.072;21.504;2024-03-23T13:51:57;3.78;;;1.80;;
80193;SDS011;69515;42.072;21.504;2024-03-23T13:54:24;4.60;;;2.00;;
80193;SDS011;69515;42.072;21.504;2024-03-23T13:56:51;4.57;;;1.88;;
80193;SDS011;69515;42.072;21.504;2024-03-23T13:59:18;4.85;;;2.08;;
80193;SDS011;69515;42.072;21.504;2024-03-23T14:01:44;3.90;;;1.80;;
80193;SDS011;69515;42.072;21.504;2024-03-23T14:04:11;4.57;;;2.13;;
80193;SDS011;69515;42.072;21.504;2024-03-23T14:06:38;4.03;;;1.95;;
80193;SDS011;69515;42.072;21.504;2024-03-23T14:09:05;3.28;;;1.73;;
80193;SDS011;69515;42.072;21.504;2024-03-23T14:11:34;4.82;;;2.28;;
80193;SDS011;69515;42.072;21.504;2024-03-23T14:14:01;5.55;;;2.00;;
80193;SDS011;69515;42.072;21.504;2024-03-23T14:16:29;5.57;;;2.08;;
80193;SDS011;69515;42.072;21.504;2024-03-23T14:18:55;4.47;;;2.00;;
80193;SDS011;69515;42.072;21.504;2024-03-23T14:21:21;5.68;;;2.05;;
80193;SDS011;69515;42.072;21.504;2024-03-23T14:23:47;5.03;;;2.20;;
80193;SDS011;69515;42.072;21.504;2024-03-23T14:26:14;4.53;;;2.00;;
80193;SDS011;69515;42.072;21.504;2024-03-23T14:28:40;4.15;;;2.15;;
80193;SDS011;69515;42.072;21.504;2024-03-23T14:31:06;4.25;;;2.10;;
80193;SDS011;69515;42.072;21.504;2024-03-23T14:36:07;4.40;;;2.08;;
80193;SDS011;69515;42.072;21.504;2024-03-23T14:38:33;5.50;;;2.20;;
80193;SDS011;69515;42.072;21.504;2024-03-23T14:41:00;4.40;;;2.13;;
80193;SDS011;69515;42.072;21.504;2024-03-23T14:43:27;4.15;;;1.88;;
80193;SDS011;69515;42.072;21.504;2024-03-23T14:46:10;4.07;;;1.95;;
80193;SDS011;69515;42.072;21.504;2024-03-23T14:48:36;4.80;;;2.20;;
80193;SDS011;69515;42.072;21.504;2024-03-23T14:51:03;3.60;;;1.77;;
80193;SDS011;69515;42.072;21.504;2024-03-23T14:53:36;4.20;;;2.08;;
80193;SDS011;69515;42.072;21.504;2024-03-23T14:56:04;4.10;;;2.20;;
80193;SDS011;69515;42.072;21.504;2024-03-23T14:58:30;4.55;;;2.17;;
80193;SDS011;69515;42.072;21.504;2024-03-23T15:01:03;4.68;;;2.25;;
80193;SDS011;69515;42.072;21.504;2024-03-23T15:03:30;5.05;;;2.45;;
80193;SDS011;69515;42.072;21.504;2024-03-23T15:05:56;4.57;;;2.47;;
80193;SDS011;69515;42.072;21.504;2024-03-23T15:08:23;5.82;;;2.90;;
80193;SDS011;69515;42.072;21.504;2024-03-23T15:10:50;5.00;;;2.58;;
80193;SDS011;69515;42.072;21.504;2024-03-23T15:13:16;5.20;;;2.67;;
80193;SDS011;69515;42.072;21.504;2024-03-23T15:15:43;6.28;;;3.00;;
80193;SDS011;69515;42.072;21.504;2024-03-23T15:18:10;5.07;;;2.35;;
80193;SDS011;69515;42.072;21.504;2024-03-23T15:20:38;5.07;;;2.60;;
80193;SDS011;69515;42.072;21.504;2024-03-23T15:23:04;4.97;;;2.38;;
80193;SDS011;69515;42.072;21.504;2024-03-23T15:25:30;4.60;;;2.05;;
80193;SDS011;69515;42.072;21.504;2024-03-23T15:27:57;5.15;;;2.20;;
80193;SDS011;69515;42.072;21.504;2024-03-23T15:30:24;5.90;;;2.22;;
80193;SDS011;69515;42.072;21.504;2024-03-23T15:32:51;4.70;;;2.70;;
80193;SDS011;69515;42.072;21.504;2024-03-23T15:35:17;4.82;;;2.35;;
80193;SDS011;69515;42.072;21.504;2024-03-23T15:37:48;4.85;;;2.13;;
80193;SDS011;69515;42.072;21.504;2024-03-23T15:40:15;5.50;;;2.35;;
80193;SDS011;69515;42.072;21.504;2024-03-23T15:42:41;7.38;;;2.50;;
80193;SDS011;69515;42.072;21.504;2024-03-23T15:45:07;7.15;;;2.78;;
80193;SDS011;69515;42.072;21.504;2024-03-23T15:47:34;4.60;;;2.40;;
80193;SDS011;69515;42.072;21.504;2024-03-23T15:50:01;5.05;;;2.47;;
80193;SDS011;69515;42.072;21.504;2024-03-23T15:52:33;4.25;;;2.17;;
80193;SDS011;69515;42.072;21.504;2024-03-23T15:55:00;9.32;;;2.25;;
80193;SDS011;69515;42.072;21.504;2024-03-23T15:57:27;4.55;;;2.28;;
80193;SDS011;69515;42.072;21.504;2024-03-23T15:59:53;4.97;;;2.38;;
80193;SDS011;69515;42.072;21.504;2024-03-23T16:02:20;4.85;;;2.17;;
80193;SDS011;69515;42.072;21.504;2024-03-23T16:04:46;4.45;;;2.30;;
80193;SDS011;69515;42.072;21.504;2024-03-23T16:07:12;5.90;;;2.55;;
80193;SDS011;69515;42.072;21.504;2024-03-23T16:09:38;4.40;;;2.35;;
80193;SDS011;69515;42.072;21.504;2024-03-23T16:12:05;5.18;;;2.45;;
80193;SDS011;69515;42.072;21.504;2024-03-23T16:14:31;4.53;;;2.22;;
80193;SDS011;69515;42.072;21.504;2024-03-23T16:16:57;6.93;;;2.80;;
80193;SDS011;69515;42.072;21.504;2024-03-23T16:19:23;4.93;;;2.60;;
80193;SDS011;69515;42.072;21.504;2024-03-23T16:21:49;7.25;;;2.80;;